sensor_id;sensor_type;location;lat;lon;timestamp;P1;durP1;ratioP1;P2;durP2;ratioP2
21162;SDS011;10739;52.198;20.908;2023-07-31T00:01:13;6.22;;;1.60;;
21162;SDS011;10739;52.198;20.908;2023-07-31T00:03:40;4.22;;;1.95;;
21162;SDS011;10739;52.198;20.908;2023-07-31T00:06:06;2.20;;;2.00;;
21162;SDS011;10739;52.198;20.908;2023-07-31T00:08:32;4.15;;;2.13;;
21162;SDS011;10739;52.198;20.908;2023-07-31T00:10:58;5.60;;;2.10;;
21162;SDS011;10739;52.198;20.908;2023-07-31T00:13:25;5.75;;;2.03;;
21162;SDS011;10739;52.198;20.908;2023-07-31T00:15:51;2.40;;;1.85;;
21162;SDS011;10739;52.198;20.908;2023-07-31T00:18:17;2.85;;;1.95;;
21162;SDS011;10739;52.198;20.908;2023-07-31T00:20:43;5.43;;;2.25;;
21162;SDS011;10739;52.198;20.908;2023-07-31T00:23:09;4.03;;;2.00;;
21162;SDS011;10739;52.198;20.908;2023-07-31T00:25:36;2.20;;;1.90;;
21162;SDS011;10739;52.198;20.908;2023-07-31T00:28:02;1.95;;;1.85;;
21162;SDS011;10739;52.198;20.908;2023-07-31T00:30:28;2.55;;;2.08;;
21162;SDS011;10739;52.198;20.908;2023-07-31T00:32:54;2.80;;;1.98;;
21162;SDS011;10739;52.198;20.908;2023-07-31T00:35:21;3.25;;;2.10;;
21162;SDS011;10739;52.198;20.908;2023-07-31T00:37:47;4.90;;;1.75;;
21162;SDS011;10739;52.198;20.908;2023-07-31T00:40:13;3.42;;;2.20;;
21162;SDS011;10739;52.198;20.908;2023-07-31T00:42:39;5.43;;;1.98;;
21162;SDS011;10739;52.198;20.908;2023-07-31T00:45:05;5.80;;;2.00;;
21162;SDS011;10739;52.198;20.908;2023-07-31T00:47:32;2.47;;;1.98;;
21162;SDS011;10739;52.198;20.908;2023-07-31T00:49:58;6.63;;;2.28;;
21162;SDS011;10739;52.198;20.908;2023-07-31T00:52:25;2.45;;;1.98;;
21162;SDS011;10739;52.198;20.908;2023-07-31T00:54:51;2.30;;;2.05;;
21162;SDS011;10739;52.198;20.908;2023-07-31T00:57:18;2.22;;;1.77;;
21162;SDS011;10739;52.198;20.908;2023-07-31T00:59:44;2.30;;;2.10;;
21162;SDS011;10739;52.198;20.908;2023-07-31T01:02:12;3.50;;;2.10;;
21162;SDS011;10739;52.198;20.908;2023-07-31T01:04:38;3.08;;;1.90;;
21162;SDS011;10739;52.198;20.908;2023-07-31T01:12:44;3.40;;;2.10;;
21162;SDS011;10739;52.198;20.908;2023-07-31T01:15:13;3.65;;;2.33;;
21162;SDS011;10739;52.198;20.908;2023-07-31T01:17:41;5.97;;;2.30;;
21162;SDS011;10739;52.198;20.908;2023-07-31T01:20:17;2.50;;;2.30;;
21162;SDS011;10739;52.198;20.908;2023-07-31T01:28:13;2.97;;;2.35;;
21162;SDS011;10739;52.198;20.908;2023-07-31T01:30:47;5.25;;;2.58;;
21162;SDS011;10739;52.198;20.908;2023-07-31T01:33:15;3.80;;;2.30;;
21162;SDS011;10739;52.198;20.908;2023-07-31T01:35:43;2.42;;;2.22;;
21162;SDS011;10739;52.198;20.908;2023-07-31T01:38:13;3.65;;;2.30;;
21162;SDS011;10739;52.198;20.908;2023-07-31T01:40:42;5.90;;;2.40;;
21162;SDS011;10739;52.198;20.908;2023-07-31T01:43:08;5.80;;;2.25;;
21162;SDS011;10739;52.198;20.908;2023-07-31T01:45:34;2.95;;;2.70;;
21162;SDS011;10739;52.198;20.908;2023-07-31T01:48:01;3.70;;;2.58;;
21162;SDS011;10739;52.198;20.908;2023-07-31T01:50:27;4.53;;;2.60;;
21162;SDS011;10739;52.198;20.908;2023-07-31T01:52:53;3.35;;;2.50;;
21162;SDS011;10739;52.198;20.908;2023-07-31T01:55:20;5.40;;;2.58;;
21162;SDS011;10739;52.198;20.908;2023-07-31T01:57:47;2.78;;;2.47;;
21162;SDS011;10739;52.198;20.908;2023-07-31T02:00:14;8.52;;;3.22;;
21162;SDS011;10739;52.198;20.908;2023-07-31T02:02:40;4.18;;;2.90;;
21162;SDS011;10739;52.198;20.908;2023-07-31T02:05:07;4.00;;;2.75;;
21162;SDS011;10739;52.198;20.908;2023-07-31T02:07:33;3.17;;;2.88;;
21162;SDS011;10739;52.198;20.908;2023-07-31T02:09:59;3.67;;;2.50;;
21162;SDS011;10739;52.198;20.908;2023-07-31T02:12:26;2.95;;;2.63;;
21162;SDS011;10739;52.198;20.908;2023-07-31T02:14:52;5.07;;;3.10;;
21162;SDS011;10739;52.198;20.908;2023-07-31T02:17:19;3.40;;;3.10;;
21162;SDS011;10739;52.198;20.908;2023-07-31T02:19:45;5.38;;;3.20;;
21162;SDS011;10739;52.198;20.908;2023-07-31T02:22:11;4.47;;;2.88;;
21162;SDS011;10739;52.198;20.908;2023-07-31T02:24:37;10.10;;;3.60;;
21162;SDS011;10739;52.198;20.908;2023-07-31T02:27:04;7.20;;;3.20;;
21162;SDS011;10739;52.198;20.908;2023-07-31T02:29:30;4.30;;;3.10;;
21162;SDS011;10739;52.198;20.908;2023-07-31T02:31:57;4.47;;;2.97;;
21162;SDS011;10739;52.198;20.908;2023-07-31T02:34:23;5.53;;;3.22;;
21162;SDS011;10739;52.198;20.908;2023-07-31T02:36:49;3.97;;;3.55;;
21162;SDS011;10739;52.198;20.908;2023-07-31T02:39:15;4.00;;;3.20;;
21162;SDS011;10739;52.198;20.908;2023-07-31T02:41:42;4.57;;;3.20;;
21162;SDS011;10739;52.198;20.908;2023-07-31T02:44:08;3.13;;;2.83;;
21162;SDS011;10739;52.198;20.908;2023-07-31T02:46:35;4.68;;;3.55;;
21162;SDS011;10739;52.198;20.908;2023-07-31T02:49:02;7.18;;;3.42;;
21162;SDS011;10739;52.198;20.908;2023-07-31T02:51:28;4.60;;;3.75;;
21162;SDS011;10739;52.198;20.908;2023-07-31T02:53:54;7.35;;;3.22;;
21162;SDS011;10739;52.198;20.908;2023-07-31T02:56:20;5.60;;;3.42;;
21162;SDS011;10739;52.198;20.908;2023-07-31T02:58:46;6.00;;;3.13;;
21162;SDS011;10739;52.198;20.908;2023-07-31T03:01:13;5.50;;;3.50;;
21162;SDS011;10739;52.198;20.908;2023-07-31T03:03:40;6.40;;;3.85;;
21162;SDS011;10739;52.198;20.908;2023-07-31T03:06:07;7.65;;;3.65;;
21162;SDS011;10739;52.198;20.908;2023-07-31T03:08:34;4.30;;;3.17;;
21162;SDS011;10739;52.198;20.908;2023-07-31T03:11:00;5.82;;;3.78;;
21162;SDS011;10739;52.198;20.908;2023-07-31T03:13:26;4.43;;;3.15;;
21162;SDS011;10739;52.198;20.908;2023-07-31T03:15:52;4.55;;;3.28;;
21162;SDS011;10739;52.198;20.908;2023-07-31T03:18:19;4.05;;;3.28;;
21162;SDS011;10739;52.198;20.908;2023-07-31T03:20:45;4.95;;;3.20;;
21162;SDS011;10739;52.198;20.908;2023-07-31T03:23:11;5.82;;;3.38;;
21162;SDS011;10739;52.198;20.908;2023-07-31T03:25:37;5.22;;;3.45;;
21162;SDS011;10739;52.198;20.908;2023-07-31T03:28:03;4.45;;;3.30;;
21162;SDS011;10739;52.198;20.908;2023-07-31T03:30:30;5.28;;;3.40;;
21162;SDS011;10739;52.198;20.908;2023-07-31T03:32:57;4.82;;;3.50;;
21162;SDS011;10739;52.198;20.908;2023-07-31T03:35:23;4.35;;;3.45;;
21162;SDS011;10739;52.198;20.908;2023-07-31T03:37:49;4.90;;;3.17;;
21162;SDS011;10739;52.198;20.908;2023-07-31T03:40:16;4.45;;;3.20;;
21162;SDS011;10739;52.198;20.908;2023-07-31T03:42:42;4.47;;;3.67;;
21162;SDS011;10739;52.198;20.908;2023-07-31T03:45:09;8.65;;;5.65;;
21162;SDS011;10739;52.198;20.908;2023-07-31T03:47:35;5.38;;;3.80;;
21162;SDS011;10739;52.198;20.908;2023-07-31T03:50:01;7.70;;;3.80;;
21162;SDS011;10739;52.198;20.908;2023-07-31T03:52:28;4.47;;;3.33;;
21162;SDS011;10739;52.198;20.908;2023-07-31T03:54:54;7.47;;;3.58;;
21162;SDS011;10739;52.198;20.908;2023-07-31T03:57:20;3.60;;;3.30;;
21162;SDS011;10739;52.198;20.908;2023-07-31T03:59:47;11.43;;;3.50;;
21162;SDS011;10739;52.198;20.908;2023-07-31T04:02:13;7.47;;;3.45;;
21162;SDS011;10739;52.198;20.908;2023-07-31T04:04:39;7.32;;;3.20;;
21162;SDS011;10739;52.198;20.908;2023-07-31T04:07:05;6.80;;;3.30;;
21162;SDS011;10739;52.198;20.908;2023-07-31T04:09:31;8.43;;;3.72;;
21162;SDS011;10739;52.198;20.908;2023-07-31T04:11:57;3.85;;;3.42;;
21162;SDS011;10739;52.198;20.908;2023-07-31T04:14:24;6.25;;;3.50;;
21162;SDS011;10739;52.198;20.908;2023-07-31T04:16:50;4.22;;;3.22;;
21162;SDS011;10739;52.198;20.908;2023-07-31T04:19:17;4.82;;;3.55;;
21162;SDS011;10739;52.198;20.908;2023-07-31T04:21:43;4.55;;;3.30;;
21162;SDS011;10739;52.198;20.908;2023-07-31T04:24:09;4.38;;;3.20;;
21162;SDS011;10739;52.198;20.908;2023-07-31T04:26:36;7.25;;;3.30;;
21162;SDS011;10739;52.198;20.908;2023-07-31T04:29:02;6.53;;;3.30;;
21162;SDS011;10739;52.198;20.908;2023-07-31T04:31:28;7.72;;;3.35;;
21162;SDS011;10739;52.198;20.908;2023-07-31T04:33:54;9.20;;;3.40;;
21162;SDS011;10739;52.198;20.908;2023-07-31T04:36:20;4.65;;;3.53;;
21162;SDS011;10739;52.198;20.908;2023-07-31T04:38:47;4.70;;;3.67;;
21162;SDS011;10739;52.198;20.908;2023-07-31T04:41:13;8.02;;;3.22;;
21162;SDS011;10739;52.198;20.908;2023-07-31T04:43:39;6.47;;;3.40;;
21162;SDS011;10739;52.198;20.908;2023-07-31T04:46:06;4.10;;;3.25;;
21162;SDS011;10739;52.198;20.908;2023-07-31T04:48:32;4.53;;;3.60;;
21162;SDS011;10739;52.198;20.908;2023-07-31T04:50:58;14.80;;;3.83;;
21162;SDS011;10739;52.198;20.908;2023-07-31T04:53:24;4.60;;;3.08;;
21162;SDS011;10739;52.198;20.908;2023-07-31T04:55:50;5.38;;;3.20;;
21162;SDS011;10739;52.198;20.908;2023-07-31T04:58:17;4.97;;;3.10;;
21162;SDS011;10739;52.198;20.908;2023-07-31T05:00:43;9.57;;;4.07;;
21162;SDS011;10739;52.198;20.908;2023-07-31T05:03:10;6.40;;;3.10;;
21162;SDS011;10739;52.198;20.908;2023-07-31T05:05:36;6.90;;;3.00;;
21162;SDS011;10739;52.198;20.908;2023-07-31T05:08:03;6.35;;;3.13;;
21162;SDS011;10739;52.198;20.908;2023-07-31T05:10:29;5.30;;;3.45;;
21162;SDS011;10739;52.198;20.908;2023-07-31T05:12:55;4.05;;;2.80;;
21162;SDS011;10739;52.198;20.908;2023-07-31T05:15:21;7.07;;;3.70;;
21162;SDS011;10739;52.198;20.908;2023-07-31T05:17:47;5.55;;;2.88;;
21162;SDS011;10739;52.198;20.908;2023-07-31T05:20:13;5.82;;;3.20;;
21162;SDS011;10739;52.198;20.908;2023-07-31T05:22:40;5.47;;;3.47;;
21162;SDS011;10739;52.198;20.908;2023-07-31T05:25:06;5.57;;;3.10;;
21162;SDS011;10739;52.198;20.908;2023-07-31T05:27:33;4.72;;;3.45;;
21162;SDS011;10739;52.198;20.908;2023-07-31T05:29:59;5.22;;;3.20;;
21162;SDS011;10739;52.198;20.908;2023-07-31T05:32:25;11.38;;;3.25;;
21162;SDS011;10739;52.198;20.908;2023-07-31T05:34:52;9.77;;;3.17;;
21162;SDS011;10739;52.198;20.908;2023-07-31T05:37:19;7.43;;;3.53;;
21162;SDS011;10739;52.198;20.908;2023-07-31T05:39:45;5.60;;;3.05;;
21162;SDS011;10739;52.198;20.908;2023-07-31T05:42:11;9.88;;;2.97;;
21162;SDS011;10739;52.198;20.908;2023-07-31T05:44:38;7.50;;;3.22;;
21162;SDS011;10739;52.198;20.908;2023-07-31T05:47:04;4.53;;;2.75;;
21162;SDS011;10739;52.198;20.908;2023-07-31T05:49:30;5.20;;;2.63;;
21162;SDS011;10739;52.198;20.908;2023-07-31T05:51:56;4.80;;;2.92;;
21162;SDS011;10739;52.198;20.908;2023-07-31T05:54:23;4.18;;;2.60;;
21162;SDS011;10739;52.198;20.908;2023-07-31T05:56:49;9.65;;;3.15;;
21162;SDS011;10739;52.198;20.908;2023-07-31T05:59:16;5.53;;;2.80;;
21162;SDS011;10739;52.198;20.908;2023-07-31T06:01:42;5.13;;;2.95;;
21162;SDS011;10739;52.198;20.908;2023-07-31T06:04:08;8.20;;;3.17;;
21162;SDS011;10739;52.198;20.908;2023-07-31T06:06:35;5.15;;;3.17;;
21162;SDS011;10739;52.198;20.908;2023-07-31T06:09:01;6.82;;;2.92;;
21162;SDS011;10739;52.198;20.908;2023-07-31T06:11:28;5.93;;;3.35;;
21162;SDS011;10739;52.198;20.908;2023-07-31T06:13:55;5.38;;;3.45;;
21162;SDS011;10739;52.198;20.908;2023-07-31T06:16:21;7.75;;;3.35;;
21162;SDS011;10739;52.198;20.908;2023-07-31T06:18:48;5.47;;;3.38;;
21162;SDS011;10739;52.198;20.908;2023-07-31T06:21:14;5.45;;;3.25;;
21162;SDS011;10739;52.198;20.908;2023-07-31T06:23:40;6.30;;;3.78;;
21162;SDS011;10739;52.198;20.908;2023-07-31T06:26:06;6.95;;;3.70;;
21162;SDS011;10739;52.198;20.908;2023-07-31T06:28:32;9.52;;;3.70;;
21162;SDS011;10739;52.198;20.908;2023-07-31T06:31:00;6.50;;;3.78;;
21162;SDS011;10739;52.198;20.908;2023-07-31T06:33:27;6.53;;;3.90;;
21162;SDS011;10739;52.198;20.908;2023-07-31T06:35:53;7.63;;;3.88;;
21162;SDS011;10739;52.198;20.908;2023-07-31T06:38:21;7.57;;;4.00;;
21162;SDS011;10739;52.198;20.908;2023-07-31T06:40:50;9.57;;;3.85;;
21162;SDS011;10739;52.198;20.908;2023-07-31T06:43:16;5.63;;;3.72;;
21162;SDS011;10739;52.198;20.908;2023-07-31T06:45:43;6.55;;;3.45;;
21162;SDS011;10739;52.198;20.908;2023-07-31T06:48:10;5.05;;;3.30;;
21162;SDS011;10739;52.198;20.908;2023-07-31T06:50:36;9.57;;;3.63;;
21162;SDS011;10739;52.198;20.908;2023-07-31T06:53:02;7.50;;;3.65;;
21162;SDS011;10739;52.198;20.908;2023-07-31T06:55:28;5.70;;;3.53;;
21162;SDS011;10739;52.198;20.908;2023-07-31T06:57:55;6.70;;;3.88;;
21162;SDS011;10739;52.198;20.908;2023-07-31T07:00:22;6.10;;;3.65;;
21162;SDS011;10739;52.198;20.908;2023-07-31T07:02:49;12.93;;;3.53;;
21162;SDS011;10739;52.198;20.908;2023-07-31T07:05:16;8.50;;;3.28;;
21162;SDS011;10739;52.198;20.908;2023-07-31T07:07:43;5.80;;;3.75;;
21162;SDS011;10739;52.198;20.908;2023-07-31T07:10:09;7.65;;;3.55;;
21162;SDS011;10739;52.198;20.908;2023-07-31T07:12:36;10.18;;;3.38;;
21162;SDS011;10739;52.198;20.908;2023-07-31T07:15:02;7.90;;;3.55;;
21162;SDS011;10739;52.198;20.908;2023-07-31T07:17:29;4.65;;;3.45;;
21162;SDS011;10739;52.198;20.908;2023-07-31T07:19:59;5.15;;;3.50;;
21162;SDS011;10739;52.198;20.908;2023-07-31T07:22:26;5.10;;;3.42;;
21162;SDS011;10739;52.198;20.908;2023-07-31T07:24:53;5.03;;;3.30;;
21162;SDS011;10739;52.198;20.908;2023-07-31T07:27:19;4.35;;;3.25;;
21162;SDS011;10739;52.198;20.908;2023-07-31T07:29:46;5.45;;;3.28;;
21162;SDS011;10739;52.198;20.908;2023-07-31T07:32:12;7.20;;;3.00;;
21162;SDS011;10739;52.198;20.908;2023-07-31T07:34:39;5.20;;;3.17;;
21162;SDS011;10739;52.198;20.908;2023-07-31T07:37:05;7.90;;;3.00;;
21162;SDS011;10739;52.198;20.908;2023-07-31T07:39:31;9.40;;;3.28;;
21162;SDS011;10739;52.198;20.908;2023-07-31T07:41:58;4.55;;;2.78;;
21162;SDS011;10739;52.198;20.908;2023-07-31T07:44:24;7.65;;;3.40;;
21162;SDS011;10739;52.198;20.908;2023-07-31T07:46:50;3.70;;;2.95;;
21162;SDS011;10739;52.198;20.908;2023-07-31T07:49:17;9.57;;;3.13;;
21162;SDS011;10739;52.198;20.908;2023-07-31T07:51:43;8.00;;;3.08;;
21162;SDS011;10739;52.198;20.908;2023-07-31T07:54:09;3.72;;;2.70;;
21162;SDS011;10739;52.198;20.908;2023-07-31T07:56:35;6.32;;;2.80;;
21162;SDS011;10739;52.198;20.908;2023-07-31T07:59:01;5.00;;;3.22;;
21162;SDS011;10739;52.198;20.908;2023-07-31T08:01:28;5.50;;;2.75;;
21162;SDS011;10739;52.198;20.908;2023-07-31T08:03:54;7.07;;;2.97;;
21162;SDS011;10739;52.198;20.908;2023-07-31T08:06:20;5.30;;;2.97;;
21162;SDS011;10739;52.198;20.908;2023-07-31T08:08:47;10.13;;;3.00;;
21162;SDS011;10739;52.198;20.908;2023-07-31T08:11:14;9.20;;;3.10;;
21162;SDS011;10739;52.198;20.908;2023-07-31T08:13:40;6.03;;;2.97;;
21162;SDS011;10739;52.198;20.908;2023-07-31T08:16:06;5.57;;;3.00;;
21162;SDS011;10739;52.198;20.908;2023-07-31T08:18:32;6.63;;;2.53;;
21162;SDS011;10739;52.198;20.908;2023-07-31T08:20:58;7.07;;;2.95;;
21162;SDS011;10739;52.198;20.908;2023-07-31T08:23:26;7.35;;;3.05;;
21162;SDS011;10739;52.198;20.908;2023-07-31T08:25:52;5.30;;;2.80;;
21162;SDS011;10739;52.198;20.908;2023-07-31T08:28:19;6.32;;;2.75;;
21162;SDS011;10739;52.198;20.908;2023-07-31T08:30:45;5.80;;;3.00;;
21162;SDS011;10739;52.198;20.908;2023-07-31T08:33:11;3.92;;;2.63;;
21162;SDS011;10739;52.198;20.908;2023-07-31T08:35:38;8.82;;;3.17;;
21162;SDS011;10739;52.198;20.908;2023-07-31T08:38:04;8.02;;;2.80;;
21162;SDS011;10739;52.198;20.908;2023-07-31T08:40:30;9.35;;;2.53;;
21162;SDS011;10739;52.198;20.908;2023-07-31T08:42:56;5.57;;;3.03;;
21162;SDS011;10739;52.198;20.908;2023-07-31T08:45:27;6.60;;;2.63;;
21162;SDS011;10739;52.198;20.908;2023-07-31T08:47:55;9.23;;;2.95;;
21162;SDS011;10739;52.198;20.908;2023-07-31T08:50:22;8.52;;;3.10;;
21162;SDS011;10739;52.198;20.908;2023-07-31T08:52:49;7.65;;;3.15;;
21162;SDS011;10739;52.198;20.908;2023-07-31T08:55:17;4.78;;;2.50;;
21162;SDS011;10739;52.198;20.908;2023-07-31T08:57:51;10.07;;;2.38;;
21162;SDS011;10739;52.198;20.908;2023-07-31T09:00:20;4.57;;;2.75;;
21162;SDS011;10739;52.198;20.908;2023-07-31T09:02:56;5.80;;;2.70;;
21162;SDS011;10739;52.198;20.908;2023-07-31T09:05:38;3.55;;;2.38;;
21162;SDS011;10739;52.198;20.908;2023-07-31T09:08:09;6.75;;;2.53;;
21162;SDS011;10739;52.198;20.908;2023-07-31T09:10:40;5.55;;;2.50;;
21162;SDS011;10739;52.198;20.908;2023-07-31T09:13:15;8.75;;;2.85;;
21162;SDS011;10739;52.198;20.908;2023-07-31T09:15:43;6.15;;;2.22;;
21162;SDS011;10739;52.198;20.908;2023-07-31T09:18:11;5.53;;;2.10;;
21162;SDS011;10739;52.198;20.908;2023-07-31T09:20:37;4.82;;;2.38;;
21162;SDS011;10739;52.198;20.908;2023-07-31T09:23:11;4.80;;;2.47;;
21162;SDS011;10739;52.198;20.908;2023-07-31T09:25:43;3.80;;;2.05;;
21162;SDS011;10739;52.198;20.908;2023-07-31T09:28:10;6.75;;;2.13;;
21162;SDS011;10739;52.198;20.908;2023-07-31T09:33:17;5.25;;;2.00;;
21162;SDS011;10739;52.198;20.908;2023-07-31T09:35:44;6.05;;;2.60;;
21162;SDS011;10739;52.198;20.908;2023-07-31T09:38:13;5.10;;;1.90;;
21162;SDS011;10739;52.198;20.908;2023-07-31T09:40:41;6.00;;;2.42;;
21162;SDS011;10739;52.198;20.908;2023-07-31T09:43:22;4.57;;;2.20;;
21162;SDS011;10739;52.198;20.908;2023-07-31T09:45:55;5.22;;;2.05;;
21162;SDS011;10739;52.198;20.908;2023-07-31T09:48:24;3.95;;;2.10;;
21162;SDS011;10739;52.198;20.908;2023-07-31T09:50:53;8.52;;;2.00;;
21162;SDS011;10739;52.198;20.908;2023-07-31T09:53:20;5.38;;;1.83;;
21162;SDS011;10739;52.198;20.908;2023-07-31T09:55:57;3.78;;;1.92;;
21162;SDS011;10739;52.198;20.908;2023-07-31T09:58:25;5.40;;;2.00;;
21162;SDS011;10739;52.198;20.908;2023-07-31T10:00:55;1.77;;;1.50;;
21162;SDS011;10739;52.198;20.908;2023-07-31T10:03:25;2.67;;;1.70;;
21162;SDS011;10739;52.198;20.908;2023-07-31T10:05:55;4.10;;;1.95;;
21162;SDS011;10739;52.198;20.908;2023-07-31T10:08:24;2.08;;;1.65;;
21162;SDS011;10739;52.198;20.908;2023-07-31T10:10:55;3.90;;;1.90;;
21162;SDS011;10739;52.198;20.908;2023-07-31T10:13:26;6.78;;;2.05;;
21162;SDS011;10739;52.198;20.908;2023-07-31T10:15:58;3.13;;;1.70;;
21162;SDS011;10739;52.198;20.908;2023-07-31T10:18:26;4.13;;;1.88;;
21162;SDS011;10739;52.198;20.908;2023-07-31T10:20:54;2.42;;;1.70;;
21162;SDS011;10739;52.198;20.908;2023-07-31T10:23:22;3.17;;;1.55;;
21162;SDS011;10739;52.198;20.908;2023-07-31T10:25:51;4.95;;;1.52;;
21162;SDS011;10739;52.198;20.908;2023-07-31T10:28:20;2.40;;;1.38;;
21162;SDS011;10739;52.198;20.908;2023-07-31T10:30:47;3.92;;;1.70;;
21162;SDS011;10739;52.198;20.908;2023-07-31T10:33:15;4.13;;;1.30;;
21162;SDS011;10739;52.198;20.908;2023-07-31T10:35:43;2.67;;;1.70;;
21162;SDS011;10739;52.198;20.908;2023-07-31T10:38:12;3.38;;;1.60;;
21162;SDS011;10739;52.198;20.908;2023-07-31T10:40:39;5.45;;;1.60;;
21162;SDS011;10739;52.198;20.908;2023-07-31T10:43:06;5.95;;;1.70;;
21162;SDS011;10739;52.198;20.908;2023-07-31T10:45:42;3.88;;;1.70;;
21162;SDS011;10739;52.198;20.908;2023-07-31T10:48:15;5.32;;;1.67;;
21162;SDS011;10739;52.198;20.908;2023-07-31T10:50:49;6.43;;;1.67;;
21162;SDS011;10739;52.198;20.908;2023-07-31T10:53:26;3.78;;;1.67;;
21162;SDS011;10739;52.198;20.908;2023-07-31T10:55:57;3.92;;;1.40;;
21162;SDS011;10739;52.198;20.908;2023-07-31T10:58:29;2.17;;;1.30;;
21162;SDS011;10739;52.198;20.908;2023-07-31T11:01:03;3.92;;;1.55;;
21162;SDS011;10739;52.198;20.908;2023-07-31T11:03:50;3.38;;;1.55;;
21162;SDS011;10739;52.198;20.908;2023-07-31T11:06:19;3.15;;;1.67;;
21162;SDS011;10739;52.198;20.908;2023-07-31T11:08:46;4.47;;;1.50;;
21162;SDS011;10739;52.198;20.908;2023-07-31T11:11:17;1.85;;;1.17;;
21162;SDS011;10739;52.198;20.908;2023-07-31T11:16:25;3.30;;;1.38;;
21162;SDS011;10739;52.198;20.908;2023-07-31T11:18:51;3.75;;;1.52;;
21162;SDS011;10739;52.198;20.908;2023-07-31T11:21:21;1.98;;;1.40;;
21162;SDS011;10739;52.198;20.908;2023-07-31T11:23:51;6.22;;;1.83;;
21162;SDS011;10739;52.198;20.908;2023-07-31T11:26:22;3.08;;;1.70;;
21162;SDS011;10739;52.198;20.908;2023-07-31T11:28:50;2.90;;;1.48;;
21162;SDS011;10739;52.198;20.908;2023-07-31T11:31:17;1.92;;;1.30;;
21162;SDS011;10739;52.198;20.908;2023-07-31T11:33:43;3.70;;;1.30;;
21162;SDS011;10739;52.198;20.908;2023-07-31T11:36:17;4.60;;;1.88;;
21162;SDS011;10739;52.198;20.908;2023-07-31T11:38:45;6.28;;;1.60;;
21162;SDS011;10739;52.198;20.908;2023-07-31T11:41:16;2.90;;;1.40;;
21162;SDS011;10739;52.198;20.908;2023-07-31T11:43:43;3.25;;;1.58;;
21162;SDS011;10739;52.198;20.908;2023-07-31T11:46:10;3.67;;;1.95;;
21162;SDS011;10739;52.198;20.908;2023-07-31T11:48:37;7.68;;;1.83;;
21162;SDS011;10739;52.198;20.908;2023-07-31T11:51:06;8.43;;;1.58;;
21162;SDS011;10739;52.198;20.908;2023-07-31T11:53:43;6.18;;;1.77;;
21162;SDS011;10739;52.198;20.908;2023-07-31T11:56:17;5.18;;;1.65;;
21162;SDS011;10739;52.198;20.908;2023-07-31T11:58:49;12.52;;;2.03;;
21162;SDS011;10739;52.198;20.908;2023-07-31T12:01:20;4.32;;;1.88;;
21162;SDS011;10739;52.198;20.908;2023-07-31T12:03:50;3.08;;;1.50;;
21162;SDS011;10739;52.198;20.908;2023-07-31T12:06:17;4.45;;;1.92;;
21162;SDS011;10739;52.198;20.908;2023-07-31T12:08:46;3.33;;;1.77;;
21162;SDS011;10739;52.198;20.908;2023-07-31T12:11:13;2.85;;;1.70;;
21162;SDS011;10739;52.198;20.908;2023-07-31T12:13:40;4.85;;;1.80;;
21162;SDS011;10739;52.198;20.908;2023-07-31T12:16:06;2.78;;;1.75;;
21162;SDS011;10739;52.198;20.908;2023-07-31T12:18:34;4.75;;;2.13;;
21162;SDS011;10739;52.198;20.908;2023-07-31T12:21:06;4.88;;;2.00;;
21162;SDS011;10739;52.198;20.908;2023-07-31T12:23:35;3.63;;;1.83;;
21162;SDS011;10739;52.198;20.908;2023-07-31T12:26:03;11.25;;;1.88;;
21162;SDS011;10739;52.198;20.908;2023-07-31T12:31:20;3.67;;;1.90;;
21162;SDS011;10739;52.198;20.908;2023-07-31T12:33:49;4.03;;;2.10;;
21162;SDS011;10739;52.198;20.908;2023-07-31T12:36:17;6.07;;;2.10;;
21162;SDS011;10739;52.198;20.908;2023-07-31T12:38:50;7.25;;;2.28;;
21162;SDS011;10739;52.198;20.908;2023-07-31T12:41:18;2.63;;;1.65;;
21162;SDS011;10739;52.198;20.908;2023-07-31T12:43:44;6.20;;;1.88;;
21162;SDS011;10739;52.198;20.908;2023-07-31T12:46:11;5.03;;;1.90;;
21162;SDS011;10739;52.198;20.908;2023-07-31T12:48:38;3.47;;;1.58;;
21162;SDS011;10739;52.198;20.908;2023-07-31T12:51:05;3.28;;;2.00;;
21162;SDS011;10739;52.198;20.908;2023-07-31T12:53:34;3.65;;;1.90;;
21162;SDS011;10739;52.198;20.908;2023-07-31T12:56:01;4.60;;;1.70;;
21162;SDS011;10739;52.198;20.908;2023-07-31T12:58:28;5.82;;;1.80;;
21162;SDS011;10739;52.198;20.908;2023-07-31T13:00:54;6.15;;;1.95;;
21162;SDS011;10739;52.198;20.908;2023-07-31T13:03:20;4.47;;;1.60;;
21162;SDS011;10739;52.198;20.908;2023-07-31T13:05:46;6.75;;;1.92;;
21162;SDS011;10739;52.198;20.908;2023-07-31T13:08:12;3.20;;;1.77;;
21162;SDS011;10739;52.198;20.908;2023-07-31T13:10:41;4.75;;;1.70;;
21162;SDS011;10739;52.198;20.908;2023-07-31T13:13:07;6.07;;;1.70;;
21162;SDS011;10739;52.198;20.908;2023-07-31T13:15:34;7.00;;;1.40;;
21162;SDS011;10739;52.198;20.908;2023-07-31T13:18:00;3.42;;;1.80;;
21162;SDS011;10739;52.198;20.908;2023-07-31T13:20:26;6.00;;;2.13;;
21162;SDS011;10739;52.198;20.908;2023-07-31T13:22:52;6.20;;;1.65;;
21162;SDS011;10739;52.198;20.908;2023-07-31T13:25:19;3.17;;;1.58;;
21162;SDS011;10739;52.198;20.908;2023-07-31T13:27:45;6.03;;;2.05;;
21162;SDS011;10739;52.198;20.908;2023-07-31T13:30:11;7.47;;;2.17;;
21162;SDS011;10739;52.198;20.908;2023-07-31T13:32:37;3.15;;;1.38;;
21162;SDS011;10739;52.198;20.908;2023-07-31T13:35:06;4.15;;;1.38;;
21162;SDS011;10739;52.198;20.908;2023-07-31T13:37:33;3.00;;;1.40;;
21162;SDS011;10739;52.198;20.908;2023-07-31T13:40:00;6.07;;;1.77;;
21162;SDS011;10739;52.198;20.908;2023-07-31T13:42:27;4.57;;;1.73;;
21162;SDS011;10739;52.198;20.908;2023-07-31T13:44:54;7.32;;;2.35;;
21162;SDS011;10739;52.198;20.908;2023-07-31T13:47:21;9.75;;;1.77;;
21162;SDS011;10739;52.198;20.908;2023-07-31T13:49:47;6.03;;;1.65;;
21162;SDS011;10739;52.198;20.908;2023-07-31T13:52:14;4.00;;;1.67;;
21162;SDS011;10739;52.198;20.908;2023-07-31T13:54:40;4.40;;;1.50;;
21162;SDS011;10739;52.198;20.908;2023-07-31T13:57:08;4.00;;;1.63;;
21162;SDS011;10739;52.198;20.908;2023-07-31T13:59:34;5.18;;;1.92;;
21162;SDS011;10739;52.198;20.908;2023-07-31T14:02:02;4.65;;;1.65;;
21162;SDS011;10739;52.198;20.908;2023-07-31T14:04:28;5.35;;;1.63;;
21162;SDS011;10739;52.198;20.908;2023-07-31T14:06:55;7.65;;;2.05;;
21162;SDS011;10739;52.198;20.908;2023-07-31T14:09:22;5.70;;;1.60;;
21162;SDS011;10739;52.198;20.908;2023-07-31T14:11:48;10.20;;;1.80;;
21162;SDS011;10739;52.198;20.908;2023-07-31T14:14:14;6.28;;;2.03;;
21162;SDS011;10739;52.198;20.908;2023-07-31T14:16:41;8.93;;;1.87;;
21162;SDS011;10739;52.198;20.908;2023-07-31T14:19:08;6.70;;;1.95;;
21162;SDS011;10739;52.198;20.908;2023-07-31T14:21:34;4.85;;;2.30;;
21162;SDS011;10739;52.198;20.908;2023-07-31T14:24:00;4.80;;;2.53;;
21162;SDS011;10739;52.198;20.908;2023-07-31T14:26:26;3.63;;;1.92;;
21162;SDS011;10739;52.198;20.908;2023-07-31T14:28:53;8.80;;;2.20;;
21162;SDS011;10739;52.198;20.908;2023-07-31T14:31:20;4.05;;;1.75;;
21162;SDS011;10739;52.198;20.908;2023-07-31T14:33:47;6.40;;;1.85;;
21162;SDS011;10739;52.198;20.908;2023-07-31T14:36:13;3.70;;;2.00;;
21162;SDS011;10739;52.198;20.908;2023-07-31T14:38:39;6.93;;;2.17;;
21162;SDS011;10739;52.198;20.908;2023-07-31T14:41:05;5.60;;;1.90;;
21162;SDS011;10739;52.198;20.908;2023-07-31T14:43:32;5.13;;;1.95;;
21162;SDS011;10739;52.198;20.908;2023-07-31T14:45:58;11.82;;;2.30;;
21162;SDS011;10739;52.198;20.908;2023-07-31T14:48:25;8.27;;;2.13;;
21162;SDS011;10739;52.198;20.908;2023-07-31T14:50:52;3.95;;;2.15;;
21162;SDS011;10739;52.198;20.908;2023-07-31T14:53:19;5.18;;;1.88;;